createdAt,value
2019-01-17T00:02:28.543Z,99768.78
2019-01-17T00:05:18.826Z,99773.17
2019-01-17T00:08:18.422Z,99780.95
2019-01-17T00:10:59.223Z,99780.95
2019-01-17T00:13:55.524Z,99779.63
2019-01-17T00:16:36.502Z,99776.30
2019-01-17T00:19:29.885Z,99774.83
2019-01-17T00:22:35.406Z,99774.83
2019-01-17T00:25:45.678Z,99782.21
2019-01-17T00:28:39.219Z,99781.23
2019-01-17T00:31:25.031Z,99788.45
2019-01-17T00:34:27.617Z,99794.19
2019-01-17T00:37:18.098Z,99804.06
2019-01-17T00:40:20.287Z,99804.06
2019-01-17T00:43:23.186Z,99806.87
2019-01-17T00:46:12.219Z,99811.55
2019-01-17T00:48:53.608Z,99811.55
2019-01-17T00:51:43.300Z,99807.61
2019-01-17T00:54:44.839Z,99807.09
2019-01-17T00:57:50.191Z,99797.83
2019-01-17T01:00:37.098Z,99792.33
2019-01-17T01:03:30.133Z,99813.95
2019-01-17T01:06:16.662Z,99824.50
2019-01-17T01:09:05.395Z,99824.50
2019-01-17T01:12:01.624Z,99830.79
2019-01-17T01:14:50.899Z,99834.25
2019-01-17T01:17:49.790Z,99834.25
2019-01-17T01:20:52.986Z,99842.50
2019-01-17T01:23:43.263Z,99836.75
2019-01-17T01:26:25.678Z,99836.75
2019-01-17T01:29:14.552Z,99836.03
2019-01-17T01:32:03.493Z,99841.27
2019-01-17T01:34:48.970Z,99841.27
2019-01-17T01:37:42.129Z,99853.43
2019-01-17T01:40:27.508Z,99853.43
2019-01-17T01:43:18.035Z,99847.66
2019-01-17T01:46:07.293Z,99848.52
2019-01-17T01:48:51.025Z,99845.62
2019-01-17T01:51:40.787Z,99855.45
2019-01-17T01:54:12.527Z,99855.45
2019-01-17T01:56:44.821Z,99855.45
2019-01-17T01:59:16.505Z,99858.45
2019-01-17T02:01:47.783Z,99858.45
2019-01-17T02:04:19.431Z,99853.48
2019-01-17T02:06:50.930Z,99854.11
2019-01-17T02:09:22.332Z,99861.25
2019-01-17T02:11:53.487Z,99866.94
2019-01-17T02:14:24.826Z,99863.70
2019-01-17T02:16:55.917Z,99866.66
2019-01-17T02:19:27.469Z,99866.66
2019-01-17T02:21:59.020Z,99869.22
2019-01-17T02:24:30.196Z,99870.05
2019-01-17T02:27:01.497Z,99877.98
2019-01-17T02:29:33.188Z,99881.67
2019-01-17T02:32:04.820Z,99881.67
2019-01-17T02:34:36.243Z,99879.58
2019-01-17T02:37:07.639Z,99879.58
2019-01-17T02:39:38.822Z,99885.69
2019-01-17T02:42:10.827Z,99884.31
2019-01-17T02:44:44.226Z,99892.20
2019-01-17T02:47:16.138Z,99904.27
2019-01-17T02:49:47.818Z,99902.97
2019-01-17T02:52:19.881Z,99909.42
2019-01-17T02:54:51.026Z,99914.88
2019-01-17T02:57:22.510Z,99915.76
2019-01-17T02:59:53.907Z,99915.76
2019-01-17T03:02:25.576Z,99933.20
2019-01-17T03:04:56.941Z,99936.56
2019-01-17T03:07:28.338Z,99940.52
2019-01-17T03:09:59.799Z,99947.42
2019-01-17T03:12:31.198Z,99949.17
2019-01-17T03:15:02.344Z,99952.14
2019-01-17T03:17:35.391Z,99952.14
2019-01-17T03:20:06.951Z,99955.53
2019-01-17T03:22:38.801Z,99952.78
2019-01-17T03:25:10.850Z,99952.78
2019-01-17T03:27:42.365Z,99965.15
2019-01-17T03:30:18.394Z,99975.56
2019-01-17T03:32:49.879Z,99975.19
2019-01-17T03:35:22.169Z,99979.43
2019-01-17T03:37:53.507Z,99978.10
2019-01-17T03:40:24.969Z,99977.56
2019-01-17T03:42:56.496Z,99977.56
2019-01-17T03:45:27.536Z,99982.64
2019-01-17T03:47:59.014Z,99985.97
2019-01-17T03:50:30.552Z,99987.71
2019-01-17T03:53:02.649Z,99996.41
2019-01-17T03:55:34.530Z,99996.41
2019-01-17T03:58:06.035Z,100004.12
2019-01-17T04:00:37.389Z,100008.75
2019-01-17T04:03:08.679Z,100011.16
2019-01-17T04:05:40.251Z,100017.66
2019-01-17T04:08:11.563Z,100017.66
2019-01-17T04:10:42.662Z,100016.77
2019-01-17T04:13:14.456Z,100024.75
2019-01-17T04:15:45.504Z,100028.90
2019-01-17T04:18:17.044Z,100028.90
2019-01-17T04:20:48.229Z,100023.86
2019-01-17T04:23:20.178Z,100029.94
2019-01-17T04:25:51.312Z,100029.94
2019-01-17T04:28:22.909Z,100032.12
2019-01-17T04:30:53.978Z,100031.84
2019-01-17T04:33:25.550Z,100030.73
2019-01-17T04:35:56.879Z,100030.73
2019-01-17T04:38:29.187Z,100020.41
2019-01-17T04:41:01.030Z,100022.94
2019-01-17T04:43:32.532Z,100027.28
2019-01-17T04:46:04.326Z,100023.52
2019-01-17T04:48:35.489Z,100023.24
2019-01-17T04:51:07.105Z,100022.25
2019-01-17T04:53:38.439Z,100022.25
2019-01-17T04:56:11.212Z,100028.78
2019-01-17T04:58:42.303Z,100028.41
2019-01-17T05:01:13.904Z,100024.51
2019-01-17T05:04:05.298Z,100033.81
2019-01-17T05:06:36.595Z,100033.81
2019-01-17T05:09:09.462Z,100019.27
2019-01-17T05:11:40.935Z,100015.13
2019-01-17T05:14:12.093Z,100017.17
2019-01-17T05:16:43.616Z,100012.11
2019-01-17T05:19:14.963Z,100011.40
2019-01-17T05:21:46.642Z,100011.40
2019-01-17T05:24:19.206Z,100010.81
2019-01-17T05:26:51.774Z,100006.30
2019-01-17T05:29:24.494Z,100006.61
2019-01-17T05:31:56.124Z,100008.95
2019-01-17T05:34:27.850Z,100008.95
2019-01-17T05:36:59.178Z,100009.35
2019-01-17T05:39:32.056Z,99995.03
2019-01-17T05:42:03.378Z,99995.03
2019-01-17T05:44:34.800Z,99995.03
2019-01-17T05:47:06.179Z,99996.19
2019-01-17T05:49:37.420Z,99993.16
2019-01-17T05:52:09.058Z,99986.30
2019-01-17T05:54:40.257Z,99986.30
2019-01-17T05:57:11.508Z,99978.67
2019-01-17T05:59:42.683Z,99971.72
2019-01-17T06:02:13.999Z,99957.47
2019-01-17T06:04:45.021Z,99949.89
2019-01-17T06:07:16.519Z,99947.70
2019-01-17T06:09:47.984Z,99944.18
2019-01-17T06:12:19.144Z,99939.28
2019-01-17T06:15:01.454Z,99934.04
2019-01-17T06:17:32.966Z,99934.04
2019-01-17T06:20:04.236Z,99932.36
2019-01-17T06:22:36.714Z,99922.45
2019-01-17T06:25:08.091Z,99921.08
2019-01-17T06:27:40.774Z,99921.08
2019-01-17T06:30:13.452Z,99907.80
2019-01-17T06:32:44.841Z,99907.80
2019-01-17T06:35:16.499Z,99902.53
2019-01-17T06:37:48.028Z,99896.95
2019-01-17T06:40:25.222Z,99893.31
2019-01-17T06:42:57.069Z,99893.31
2019-01-17T06:45:28.354Z,99879.41
2019-01-17T06:47:59.778Z,99879.41
2019-01-17T06:50:36.206Z,99876.02
2019-01-17T06:53:07.589Z,99860.17
2019-01-17T06:55:38.955Z,99861.94
2019-01-17T06:58:10.526Z,99853.08
2019-01-17T07:00:41.743Z,99846.41
2019-01-17T07:03:13.373Z,99842.09
2019-01-17T07:05:45.159Z,99842.09
2019-01-17T07:08:16.945Z,99839.23
2019-01-17T07:10:48.594Z,99832.30
2019-01-17T07:13:20.274Z,99822.52
2019-01-17T07:15:51.727Z,99813.98
2019-01-17T07:18:24.316Z,99808.09
2019-01-17T07:20:55.566Z,99802.84
2019-01-17T07:23:27.000Z,99809.63
2019-01-17T07:25:59.283Z,99809.63
2019-01-17T07:28:30.913Z,99799.32
2019-01-17T07:31:02.456Z,99789.44
2019-01-17T07:33:34.397Z,99778.27
2019-01-17T07:36:06.094Z,99778.27
2019-01-17T07:38:38.613Z,99772.81
2019-01-17T07:41:09.967Z,99765.27
2019-01-17T07:43:41.461Z,99752.97
2019-01-17T07:46:12.965Z,99761.64
2019-01-17T07:48:44.532Z,99750.05
2019-01-17T07:51:16.678Z,99750.05
2019-01-17T07:53:48.235Z,99738.08
2019-01-17T07:56:19.482Z,99738.08
2019-01-17T07:58:50.803Z,99735.02
2019-01-17T08:01:22.050Z,99730.16
2019-01-17T08:03:53.450Z,99730.16
2019-01-17T08:06:25.315Z,99725.69
2019-01-17T08:08:57.104Z,99723.27
2019-01-17T08:11:28.661Z,99718.37
2019-01-17T08:14:00.323Z,99710.05
2019-01-17T08:16:31.575Z,99710.05
2019-01-17T08:19:03.552Z,99703.50
2019-01-17T08:21:34.852Z,99700.94
2019-01-17T08:24:06.273Z,99688.40
2019-01-17T08:26:37.583Z,99693.83
2019-01-17T08:29:09.009Z,99693.83
2019-01-17T08:31:40.595Z,99687.34
2019-01-17T08:34:12.229Z,99684.41
2019-01-17T08:36:43.955Z,99679.86
2019-01-17T08:39:15.458Z,99674.95
2019-01-17T08:41:47.355Z,99662.52
2019-01-17T08:44:18.991Z,99662.52
2019-01-17T08:46:50.717Z,99664.47
2019-01-17T08:49:22.812Z,99668.17
2019-01-17T08:51:55.565Z,99670.27
2019-01-17T08:54:26.906Z,99670.27
2019-01-17T08:56:58.276Z,99664.05
2019-01-17T08:59:29.564Z,99663.14
2019-01-17T09:02:00.842Z,99657.91
2019-01-17T09:04:32.272Z,99661.84
2019-01-17T09:07:03.707Z,99647.56
2019-01-17T09:09:34.992Z,99647.56
2019-01-17T09:12:06.361Z,99645.80
2019-01-17T09:14:37.997Z,99645.80
2019-01-17T09:17:09.284Z,99641.09
2019-01-17T09:19:40.673Z,99641.09
2019-01-17T09:22:12.257Z,99637.79
2019-01-17T09:24:43.528Z,99646.09
2019-01-17T09:27:15.230Z,99646.09
2019-01-17T09:29:46.722Z,99636.34
2019-01-17T09:32:18.152Z,99635.44
2019-01-17T09:34:49.605Z,99635.44
2019-01-17T09:37:21.112Z,99628.08
2019-01-17T09:39:52.498Z,99628.08
2019-01-17T09:42:24.538Z,99623.22
2019-01-17T09:44:56.728Z,99616.42
2019-01-17T09:47:28.318Z,99612.95
2019-01-17T09:49:59.841Z,99612.95
2019-01-17T09:52:31.662Z,99612.22
2019-01-17T09:55:03.013Z,99612.22
2019-01-17T09:57:34.566Z,99609.61
2019-01-17T10:00:07.929Z,99611.38
2019-01-17T10:02:39.654Z,99602.20
2019-01-17T10:05:11.045Z,99609.59
2019-01-17T10:07:42.355Z,99609.59
2019-01-17T10:10:16.209Z,99606.42
2019-01-17T10:12:50.030Z,99610.63
2019-01-17T10:15:27.642Z,99606.78
2019-01-17T10:18:48.445Z,99606.42
2019-01-17T10:21:55.518Z,99609.22
2019-01-17T10:24:46.850Z,99608.58
2019-01-17T10:27:46.291Z,99608.02
2019-01-17T10:30:53.305Z,99608.02
2019-01-17T10:34:02.138Z,99609.69
2019-01-17T10:37:16.102Z,99620.73
2019-01-17T10:40:18.192Z,99608.45
2019-01-17T10:43:33.547Z,99608.45
2019-01-17T10:46:39.506Z,99616.88
2019-01-17T10:49:49.771Z,99604.00
2019-01-17T10:52:32.194Z,99616.52
2019-01-17T10:55:46.117Z,99610.59
2019-01-17T10:58:58.032Z,99611.55
2019-01-17T11:01:50.649Z,99616.38
2019-01-17T11:04:54.750Z,99616.38
2019-01-17T11:07:51.731Z,99616.98
2019-01-17T11:11:01.110Z,99616.74
2019-01-17T11:14:19.163Z,99620.56
2019-01-17T11:17:22.579Z,99620.56
2019-01-17T11:20:41.996Z,99616.31
2019-01-17T11:23:48.951Z,99616.31
2019-01-17T11:27:01.470Z,99616.95
2019-01-17T11:29:52.720Z,99621.25
2019-01-17T11:33:03.360Z,99617.40
2019-01-17T11:36:05.957Z,99619.16
2019-01-17T11:39:04.454Z,99610.77
2019-01-17T11:42:02.938Z,99610.77
2019-01-17T11:44:50.314Z,99623.64
2019-01-17T11:47:46.996Z,99614.81
2019-01-17T11:50:40.242Z,99625.44
2019-01-17T11:53:52.040Z,99626.50
2019-01-17T11:56:50.628Z,99626.50
2019-01-17T12:00:02.414Z,99631.45
2019-01-17T12:03:02.410Z,99629.17
2019-01-17T12:05:33.917Z,99629.17
2019-01-17T12:08:05.450Z,99626.45
2019-01-17T12:10:36.875Z,99631.09
2019-01-17T12:13:08.688Z,99632.41
2019-01-17T12:15:40.222Z,99632.41
2019-01-17T12:18:12.555Z,99631.49
2019-01-17T12:20:43.827Z,99634.28
2019-01-17T12:23:15.505Z,99634.04
2019-01-17T12:25:46.819Z,99638.75
2019-01-17T12:28:18.411Z,99636.66
2019-01-17T12:30:49.695Z,99636.38
2019-01-17T12:33:21.269Z,99645.52
2019-01-17T12:35:53.626Z,99635.28
2019-01-17T12:38:25.012Z,99635.28
2019-01-17T12:40:56.596Z,99645.91
2019-01-17T12:43:28.003Z,99645.91
2019-01-17T12:46:02.903Z,99647.16
2019-01-17T12:48:34.423Z,99647.16
2019-01-17T12:51:05.819Z,99654.16
2019-01-17T12:53:37.154Z,99654.16
2019-01-17T12:56:08.366Z,99654.34
2019-01-17T12:58:40.259Z,99656.70
2019-01-17T13:01:11.709Z,99659.89
2019-01-17T13:03:43.201Z,99659.89
2019-01-17T13:06:15.083Z,99672.09
2019-01-17T13:08:46.416Z,99666.13
2019-01-17T13:11:18.211Z,99669.59
2019-01-17T13:13:49.721Z,99673.91
2019-01-17T13:16:21.440Z,99679.78
2019-01-17T13:18:52.713Z,99679.78
2019-01-17T13:21:24.823Z,99681.80
2019-01-17T13:23:55.983Z,99682.34
2019-01-17T13:26:27.528Z,99684.72
2019-01-17T13:28:58.983Z,99685.31
2019-01-17T13:31:30.444Z,99685.31
2019-01-17T13:34:01.731Z,99687.81
2019-01-17T13:36:40.008Z,99699.30
2019-01-17T13:39:08.614Z,99699.30
2019-01-17T13:41:40.063Z,99700.66
2019-01-17T13:44:11.788Z,99706.84
2019-01-17T13:46:43.507Z,99706.84
2019-01-17T13:49:15.203Z,99715.73
2019-01-17T13:51:46.568Z,99722.11
2019-01-17T13:54:17.962Z,99719.98
2019-01-17T13:56:49.495Z,99719.98
2019-01-17T13:59:20.915Z,99722.73
2019-01-17T14:01:52.144Z,99726.20
2019-01-17T14:04:23.658Z,99724.14
2019-01-17T14:06:55.280Z,99724.33
2019-01-17T14:09:26.964Z,99724.33
2019-01-17T14:11:58.334Z,99730.26
2019-01-17T14:14:30.017Z,99738.09
2019-01-17T14:17:01.314Z,99738.09
2019-01-17T14:19:33.307Z,99738.79
2019-01-17T14:22:04.703Z,99739.98
2019-01-17T14:24:36.231Z,99750.63
2019-01-17T14:27:13.889Z,99742.70
2019-01-17T14:29:41.192Z,99745.00
2019-01-17T14:32:13.062Z,99747.50
2019-01-17T14:34:44.630Z,99749.21
2019-01-17T14:37:16.190Z,99749.21
2019-01-17T14:39:47.890Z,99758.98
2019-01-17T14:42:19.015Z,99756.28
2019-01-17T14:44:50.400Z,99763.85
2019-01-17T14:47:21.443Z,99760.05
2019-01-17T14:49:53.264Z,99760.05
2019-01-17T14:52:24.413Z,99770.49
2019-01-17T14:54:55.645Z,99768.53
2019-01-17T14:57:26.847Z,99772.23
2019-01-17T14:59:58.401Z,99778.66
2019-01-17T15:02:30.111Z,99776.66
2019-01-17T15:05:01.484Z,99779.06
2019-01-17T15:07:33.144Z,99781.86
2019-01-17T15:10:05.289Z,99782.44
2019-01-17T15:12:36.895Z,99779.19
2019-01-17T15:15:08.820Z,99779.19
2019-01-17T15:17:40.139Z,99783.63
2019-01-17T15:20:14.666Z,99782.14
2019-01-17T15:22:46.887Z,99792.56
2019-01-17T15:25:18.436Z,99796.95
2019-01-17T15:27:49.779Z,99796.95
2019-01-17T15:30:23.205Z,99802.97
2019-01-17T15:32:54.884Z,99802.97
2019-01-17T15:35:26.633Z,99800.77
2019-01-17T15:37:58.009Z,99806.62
2019-01-17T15:40:31.319Z,99806.62
2019-01-17T15:43:03.276Z,99810.80
2019-01-17T15:45:34.838Z,99814.30
2019-01-17T15:48:06.024Z,99814.30
2019-01-17T15:50:37.768Z,99813.52
2019-01-17T15:53:09.335Z,99818.64
2019-01-17T15:55:40.663Z,99826.13
2019-01-17T15:58:11.836Z,99822.95
2019-01-17T16:00:43.789Z,99822.95
2019-01-17T16:03:15.006Z,99834.20
2019-01-17T16:05:46.968Z,99834.20
2019-01-17T16:08:18.526Z,99828.91
2019-01-17T16:10:50.375Z,99832.09
2019-01-17T16:13:21.593Z,99832.09
2019-01-17T16:15:53.382Z,99834.28
2019-01-17T16:18:24.702Z,99837.84
2019-01-17T16:20:56.287Z,99849.13
2019-01-17T16:23:27.818Z,99849.13
2019-01-17T16:25:59.635Z,99846.28
2019-01-17T16:28:31.057Z,99845.33
2019-01-17T16:31:02.239Z,99845.33
2019-01-17T16:33:33.648Z,99844.88
2019-01-17T16:36:05.129Z,99844.88
2019-01-17T16:38:36.791Z,99839.75
2019-01-17T16:41:08.274Z,99839.75
2019-01-17T16:43:40.085Z,99842.25
2019-01-17T16:46:12.553Z,99838.59
2019-01-17T16:48:44.405Z,99844.37
2019-01-17T16:51:16.151Z,99840.61
2019-01-17T16:53:48.042Z,99845.42
2019-01-17T16:56:19.598Z,99841.01
2019-01-17T16:58:51.310Z,99840.05
2019-01-17T17:01:22.760Z,99840.05
2019-01-17T17:03:54.507Z,99842.24
2019-01-17T17:06:26.449Z,99841.08
2019-01-17T17:08:58.369Z,99839.33
2019-01-17T17:11:29.977Z,99839.33
2019-01-17T17:14:01.499Z,99843.67
2019-01-17T17:16:32.944Z,99856.81
2019-01-17T17:19:05.813Z,99858.39
2019-01-17T17:21:37.371Z,99858.39
2019-01-17T17:24:09.130Z,99851.72
2019-01-17T17:26:40.615Z,99846.55
2019-01-17T17:29:12.302Z,99846.55
2019-01-17T17:31:44.084Z,99844.72
2019-01-17T17:34:15.792Z,99844.72
2019-01-17T17:36:47.046Z,99838.20
2019-01-17T17:39:18.814Z,99830.55
2019-01-17T17:41:50.359Z,99830.55
2019-01-17T17:44:22.274Z,99835.58
2019-01-17T17:46:54.292Z,99835.58
2019-01-17T17:49:25.709Z,99838.08
2019-01-17T17:51:57.359Z,99831.94
2019-01-17T17:54:28.711Z,99837.69
2019-01-17T17:57:00.343Z,99833.38
2019-01-17T17:59:31.591Z,99836.87
2019-01-17T18:02:09.945Z,99836.87
2019-01-17T18:04:41.578Z,99835.88
2019-01-17T18:07:13.606Z,99835.53
2019-01-17T18:09:45.535Z,99839.12
2019-01-17T18:12:16.614Z,99836.87
2019-01-17T18:14:48.175Z,99836.87
2019-01-17T18:17:19.428Z,99837.91
2019-01-17T18:19:51.273Z,99838.17
2019-01-17T18:22:22.588Z,99843.05
2019-01-17T18:24:54.230Z,99843.05
2019-01-17T18:27:25.810Z,99836.52
2019-01-17T18:29:57.637Z,99838.20
2019-01-17T18:32:29.196Z,99841.20
2019-01-17T18:35:00.382Z,99844.73
2019-01-17T18:37:32.886Z,99840.06
2019-01-17T18:40:04.924Z,99832.85
2019-01-17T18:42:36.163Z,99837.41
2019-01-17T18:45:09.855Z,99837.47
2019-01-17T18:47:41.699Z,99837.47
2019-01-17T18:50:15.494Z,99837.85
2019-01-17T18:52:46.989Z,99832.16
2019-01-17T18:55:19.125Z,99832.16
2019-01-17T18:57:50.820Z,99834.09
2019-01-17T19:00:32.986Z,99836.80
2019-01-17T19:03:04.722Z,99836.25
2019-01-17T19:05:36.142Z,99836.25
2019-01-17T19:08:10.077Z,99833.36
2019-01-17T19:10:44.116Z,99829.64
2019-01-17T19:13:15.183Z,99829.64
2019-01-17T19:15:47.038Z,99829.95
2019-01-17T19:18:18.237Z,99829.95
2019-01-17T19:20:49.853Z,99828.80
2019-01-17T19:23:20.937Z,99828.80
2019-01-17T19:25:53.237Z,99836.86
2019-01-17T19:28:24.432Z,99841.07
2019-01-17T19:30:55.753Z,99841.07
2019-01-17T19:33:27.671Z,99848.95
2019-01-17T19:35:59.016Z,99848.95
2019-01-17T19:38:30.644Z,99849.09
2019-01-17T19:41:05.603Z,99844.68
2019-01-17T19:43:37.054Z,99839.80
2019-01-17T19:46:08.715Z,99839.80
2019-01-17T19:48:40.317Z,99843.36
2019-01-17T19:51:11.548Z,99843.36
2019-01-17T19:53:42.824Z,99855.74
2019-01-17T19:56:15.043Z,99855.74
2019-01-17T19:58:46.295Z,99855.13
2019-01-17T20:01:17.483Z,99855.13
2019-01-17T20:03:49.070Z,99860.79
2019-01-17T20:06:20.511Z,99860.79
2019-01-17T20:08:52.079Z,99868.67
2019-01-17T20:11:23.472Z,99872.02
2019-01-17T20:13:55.357Z,99872.02
2019-01-17T20:16:26.998Z,99873.83
2019-01-17T20:19:00.578Z,99869.53
2019-01-17T20:21:31.888Z,99869.53
2019-01-17T20:24:03.555Z,99859.22
2019-01-17T20:26:35.571Z,99859.22
2019-01-17T20:29:06.864Z,99853.66
2019-01-17T20:31:39.211Z,99863.25
2019-01-17T20:34:10.414Z,99860.06
2019-01-17T20:36:42.492Z,99865.09
2019-01-17T20:39:13.727Z,99862.64
2019-01-17T20:41:45.195Z,99853.02
2019-01-17T20:44:16.729Z,99856.16
2019-01-17T20:46:48.806Z,99860.77
2019-01-17T20:49:20.343Z,99860.77
2019-01-17T20:51:52.245Z,99867.41
2019-01-17T20:54:23.626Z,99866.57
2019-01-17T20:56:56.577Z,99859.53
2019-01-17T20:59:28.043Z,99853.70
2019-01-17T21:02:19.706Z,99859.67
2019-01-17T21:04:52.108Z,99859.67
2019-01-17T21:07:23.587Z,99865.43
2019-01-17T21:09:55.170Z,99865.43
2019-01-17T21:12:27.264Z,99856.01
2019-01-17T21:14:58.545Z,99862.80
2019-01-17T21:17:30.368Z,99855.90
2019-01-17T21:20:01.494Z,99855.90
2019-01-17T21:22:33.159Z,99837.92
2019-01-17T21:25:05.456Z,99837.92
2019-01-17T21:27:36.858Z,99832.69
2019-01-17T21:30:11.478Z,99820.36
2019-01-17T21:32:42.951Z,99820.98
2019-01-17T21:35:16.206Z,99824.27
2019-01-17T21:37:47.779Z,99831.29
2019-01-17T21:40:20.205Z,99831.29
2019-01-17T21:42:51.414Z,99814.58
2019-01-17T21:45:22.678Z,99814.58
2019-01-17T21:47:54.033Z,99822.38
2019-01-17T21:50:27.180Z,99822.38
2019-01-17T21:52:58.798Z,99821.98
2019-01-17T21:55:30.446Z,99827.63
2019-01-17T21:58:02.036Z,99820.08
2019-01-17T22:00:33.344Z,99815.80
2019-01-17T22:03:05.137Z,99807.72
2019-01-17T22:05:36.716Z,99814.20
2019-01-17T22:08:08.395Z,99813.86
2019-01-17T22:10:40.676Z,99813.86
2019-01-17T22:13:12.243Z,99817.20
2019-01-17T22:15:43.648Z,99817.94
2019-01-17T22:18:15.243Z,99817.94
2019-01-17T22:20:47.021Z,99827.22
2019-01-17T22:23:18.325Z,99823.66
2019-01-17T22:25:50.545Z,99823.66
2019-01-17T22:28:22.030Z,99827.34
2019-01-17T22:30:53.652Z,99827.34
2019-01-17T22:33:24.820Z,99820.22
2019-01-17T22:35:56.377Z,99823.04
2019-01-17T22:38:27.573Z,99815.34
2019-01-17T22:40:59.579Z,99815.34
2019-01-17T22:43:31.031Z,99811.14
2019-01-17T22:46:02.609Z,99805.09
2019-01-17T22:48:33.761Z,99811.69
2019-01-17T22:51:05.298Z,99809.72
2019-01-17T22:53:36.502Z,99816.77
2019-01-17T22:56:08.371Z,99819.52
2019-01-17T22:58:40.064Z,99809.42
2019-01-17T23:01:21.520Z,99809.42
2019-01-17T23:03:53.804Z,99809.06
2019-01-17T23:06:25.267Z,99823.17
2019-01-17T23:08:57.140Z,99828.34
2019-01-17T23:11:29.655Z,99830.94
2019-01-17T23:14:01.145Z,99830.94
2019-01-17T23:16:32.622Z,99827.66
2019-01-17T23:19:04.588Z,99832.98
2019-01-17T23:21:35.846Z,99829.55
2019-01-17T23:24:07.063Z,99830.63
2019-01-17T23:26:38.619Z,99830.63
2019-01-17T23:29:15.944Z,99833.52
2019-01-17T23:31:43.656Z,99826.97
2019-01-17T23:34:14.968Z,99829.21
2019-01-17T23:36:48.814Z,99829.21
2019-01-17T23:39:19.577Z,99828.23
2019-01-17T23:41:52.331Z,99826.13
2019-01-17T23:44:23.677Z,99827.02
2019-01-17T23:46:55.130Z,99827.02
2019-01-17T23:49:26.743Z,99815.48
2019-01-17T23:51:58.581Z,99816.36
2019-01-17T23:54:30.061Z,99819.53
2019-01-17T23:57:01.899Z,99817.34
2019-01-17T23:59:33.445Z,99817.34
